Time;durP1;ratioP1;P1;durP2;ratioP2;P2;SDS_P1;SDS_P2;PMS_P1;PMS_P2;Temp;Humidity;BMP_temperature;BMP_pressure;BME280_temperature;BME280_humidity;BME280_pressure;Samples;Min_cycle;Max_cycle;Signal;HPM_P1;HPM_P2
2023/04/24 00:02:56;;;;;;;26.30;18.50;;;;;;;11.27;71.45;97864.19;225397;1275;22523;-76
2023/04/24 00:07:59;;;;;;;24.10;17.60;;;;;;;11.27;71.51;97859.55;225296;1280;22548;-77
2023/04/24 00:13:01;;;;;;;24.20;18.90;;;;;;;11.26;71.42;97858.91;225259;1279;22546;-77
2023/04/24 00:18:04;;;;;;;23.10;18.20;;;;;;;11.25;71.51;97854.60;225259;1280;22490;-77
2023/04/24 00:23:06;;;;;;;24.50;17.80;;;;;;;11.24;71.56;97845.73;225274;1279;22545;-78
2023/04/24 00:28:08;;;;;;;24.10;17.40;;;;;;;11.23;71.49;97837.28;225316;1279;25265;-77
2023/04/24 00:33:10;;;;;;;22.70;17.80;;;;;;;11.23;71.54;97832.53;225340;1280;22527;-78
2023/04/24 00:38:12;;;;;;;23.90;17.40;;;;;;;11.25;71.36;97828.56;225124;1273;22531;-77
2023/04/24 00:43:17;;;;;;;23.80;16.60;;;;;;;11.27;71.61;97822.92;224915;1280;22564;-78
2023/04/24 00:48:20;;;;;;;20.20;15.00;;;;;;;11.31;71.43;97815.20;225120;1281;23851;-77
2023/04/24 00:53:22;;;;;;;19.70;14.20;;;;;;;11.35;70.94;97814.81;225297;1279;22539;-78
2023/04/24 00:58:24;;;;;;;19.40;15.30;;;;;;;11.37;70.72;97813.66;225242;1279;22532;-77
2023/04/24 01:03:31;;;;;;;18.10;14.00;;;;;;;11.39;70.50;97808.48;225403;1273;22662;-77
2023/04/24 01:08:35;;;;;;;20.30;14.50;;;;;;;11.40;70.25;97806.52;225231;1280;22670;-77
2023/04/24 01:13:38;;;;;;;19.20;14.50;;;;;;;11.41;70.23;97798.91;225266;1278;25230;-78
2023/04/24 01:18:41;;;;;;;18.30;13.60;;;;;;;11.41;70.02;97798.30;225295;1280;22537;-77
2023/04/24 01:23:46;;;;;;;15.10;12.80;;;;;;;11.41;69.97;97799.14;225362;1276;22535;-76
2023/04/24 01:28:48;;;;;;;18.70;13.80;;;;;;;11.39;69.92;97791.63;225152;1276;22614;-77
2023/04/24 01:33:51;;;;;;;19.00;13.30;;;;;;;11.38;69.92;97786.75;225364;1280;22538;-77
2023/04/24 01:38:53;;;;;;;17.60;14.30;;;;;;;11.37;69.90;97785.98;225419;1276;25271;-77
2023/04/24 01:43:58;;;;;;;15.80;13.20;;;;;;;11.35;69.96;97784.78;225354;1273;22632;-77
2023/04/24 01:49:01;;;;;;;16.70;13.20;;;;;;;11.35;69.92;97782.05;225166;1280;22579;-79
2023/04/24 01:54:03;;;;;;;17.10;12.40;;;;;;;11.34;69.79;97779.05;225417;1280;25432;-78
2023/04/24 01:59:07;;;;;;;25.90;13.80;;;;;;;11.32;69.89;97776.95;225195;1280;22677;-77
2023/04/24 02:04:09;;;;;;;15.30;12.20;;;;;;;11.32;69.68;97771.91;225192;1277;22545;-77
2023/04/24 02:09:11;;;;;;;17.20;12.10;;;;;;;11.32;69.59;97771.86;225375;1279;24284;-77
2023/04/24 02:14:13;;;;;;;16.90;12.50;;;;;;;11.32;69.35;97762.19;225221;1280;24244;-78
2023/04/24 02:19:16;;;;;;;16.10;11.90;;;;;;;11.32;69.25;97761.82;225210;1279;22558;-77
2023/04/24 02:24:18;;;;;;;18.00;12.40;;;;;;;11.33;69.27;97758.52;225327;1280;22527;-76
2023/04/24 02:29:20;;;;;;;15.50;12.20;;;;;;;11.34;69.45;97764.33;225400;1279;22534;-77
2023/04/24 02:34:23;;;;;;;14.80;12.30;;;;;;;11.35;69.37;97763.98;225194;1280;22530;-77
2023/04/24 02:39:26;;;;;;;16.60;13.50;;;;;;;11.37;69.23;97761.62;225376;1280;23843;-77
2023/04/24 02:44:28;;;;;;;16.70;12.50;;;;;;;11.39;69.15;97758.18;225118;1280;24265;-77
2023/04/24 02:49:30;;;;;;;17.70;13.00;;;;;;;11.41;68.76;97759.84;225075;1280;22752;-77
2023/04/24 02:54:32;;;;;;;18.70;13.60;;;;;;;11.44;68.54;97757.47;225160;1275;22544;-77
2023/04/24 02:59:35;;;;;;;19.20;13.40;;;;;;;11.46;68.17;97759.98;225282;1277;23924;-77
2023/04/24 03:04:37;;;;;;;16.50;12.90;;;;;;;11.49;68.21;97751.12;225142;1280;22532;-76
2023/04/24 03:09:39;;;;;;;16.60;12.30;;;;;;;11.51;67.97;97749.27;225385;1280;22552;-77
2023/04/24 03:14:42;;;;;;;16.40;12.50;;;;;;;11.50;68.06;97747.81;225375;1278;22536;-77
2023/04/24 03:19:44;;;;;;;18.80;13.10;;;;;;;11.48;67.95;97747.75;225322;1278;22533;-77
2023/04/24 03:24:47;;;;;;;17.60;12.80;;;;;;;11.45;67.97;97750.52;225340;1273;22557;-78
2023/04/24 03:29:54;;;;;;;16.30;12.80;;;;;;;11.41;68.16;97748.20;225158;1277;25077;-78
2023/04/24 03:35:00;;;;;;;15.70;12.60;;;;;;;11.37;68.47;97744.70;225341;1280;22499;-78
2023/04/24 03:40:04;;;;;;;13.60;11.90;;;;;;;11.33;68.48;97741.42;225329;1280;22613;-77
2023/04/24 03:45:09;;;;;;;14.80;11.90;;;;;;;11.31;68.90;97741.68;225323;1279;24263;-78
2023/04/24 03:50:13;;;;;;;14.10;11.20;;;;;;;11.28;68.88;97734.14;225376;1263;22534;-77
2023/04/24 03:55:16;;;;;;;15.70;11.50;;;;;;;11.27;68.94;97735.56;225234;1279;22538;-78
2023/04/24 04:00:20;;;;;;;17.20;11.80;;;;;;;11.24;69.07;97737.25;225352;1280;22530;-76
2023/04/24 04:05:26;;;;;;;16.20;11.00;;;;;;;11.25;69.14;97738.02;225197;1277;22562;-77
2023/04/24 04:10:29;;;;;;;14.60;11.60;;;;;;;11.27;68.98;97737.02;225320;1279;22531;-78
2023/04/24 04:15:31;;;;;;;12.70;10.90;;;;;;;11.31;68.69;97738.31;225158;1280;25378;-78
2023/04/24 04:20:34;;;;;;;14.00;11.60;;;;;;;11.39;68.72;97741.05;225337;1280;22552;-77
2023/04/24 04:25:36;;;;;;;19.00;13.40;;;;;;;11.46;68.62;97741.30;225277;1280;22540;-78
2023/04/24 04:30:40;;;;;;;21.30;14.10;;;;;;;11.52;68.30;97743.82;225190;1280;22539;-77
2023/04/24 04:35:43;;;;;;;18.00;13.70;;;;;;;11.56;68.42;97737.83;225429;1278;22654;-78
2023/04/24 04:40:46;;;;;;;14.70;11.90;;;;;;;11.63;68.36;97734.04;225174;1280;22573;-77
2023/04/24 04:45:51;;;;;;;14.40;11.60;;;;;;;11.71;68.14;97733.50;225172;1280;22542;-77
2023/04/24 04:51:05;;;;;;;15.40;10.70;;;;;;;11.78;68.03;97735.98;225336;1278;22485;-78
2023/04/24 04:56:07;;;;;;;13.30;10.70;;;;;;;11.86;68.00;97735.16;225368;1280;22527;-78
2023/04/24 05:01:14;;;;;;;15.80;10.60;;;;;;;11.95;68.27;97735.95;225424;1278;24383;-77
2023/04/24 05:06:20;;;;;;;14.80;10.50;;;;;;;12.05;68.13;97737.77;225281;1280;22524;-78
2023/04/24 05:11:25;;;;;;;16.50;11.60;;;;;;;12.16;67.97;97739.39;225267;1276;22540;-78
2023/04/24 05:16:30;;;;;;;14.80;10.50;;;;;;;12.29;67.74;97733.16;225152;1280;22527;-79
2023/04/24 05:21:34;;;;;;;14.80;10.40;;;;;;;12.41;67.68;97735.96;225241;1275;24199;-76
2023/04/24 05:26:36;;;;;;;16.60;11.50;;;;;;;12.56;67.90;97731.30;225194;1277;22524;-77
2023/04/24 05:31:38;;;;;;;16.50;10.50;;;;;;;12.75;68.15;97730.36;225170;1280;22547;-77
2023/04/24 05:36:40;;;;;;;15.60;10.80;;;;;;;12.99;68.62;97732.91;225207;1280;22641;-76
2023/04/24 05:41:43;;;;;;;13.50;10.00;;;;;;;13.29;68.39;97734.60;225240;1280;22531;-78
2023/04/24 05:46:45;;;;;;;11.80;9.60;;;;;;;13.60;67.89;97733.88;225277;1273;24257;-78
2023/04/24 05:51:48;;;;;;;14.10;9.10;;;;;;;13.88;67.42;97732.36;224961;1280;22537;-78
2023/04/24 05:56:51;;;;;;;11.10;8.90;;;;;;;14.16;66.75;97728.07;225072;1279;22544;-78
2023/04/24 06:02:01;;;;;;;11.40;8.50;;;;;;;14.42;66.55;97722.20;224875;1280;22545;-77
2023/04/24 06:07:04;;;;;;;11.50;7.80;;;;;;;14.70;65.99;97725.73;224810;1257;22495;-78
2023/04/24 06:12:08;;;;;;;12.90;8.70;;;;;;;15.07;65.81;97719.33;224924;1260;22535;-75
2023/04/24 06:17:24;;;;;;;10.60;7.60;;;;;;;15.51;65.16;97714.27;224457;1259;138047;-76
2023/04/24 06:22:26;;;;;;;10.50;7.60;;;;;;;15.89;64.12;97709.35;224819;1258;138460;-76
2023/04/24 06:27:28;;;;;;;9.00;5.50;;;;;;;16.34;63.79;97706.61;224613;1262;138378;-76
2023/04/24 06:32:30;;;;;;;5.20;3.90;;;;;;;16.86;60.97;97702.63;224580;1270;138138;-78
2023/04/24 06:37:34;;;;;;;5.90;3.60;;;;;;;17.42;57.99;97705.31;224669;1274;25393;-76
2023/04/24 06:42:36;;;;;;;5.50;3.80;;;;;;;17.90;57.15;97698.48;224509;1273;137898;-77
2023/04/24 06:47:40;;;;;;;4.80;4.00;;;;;;;18.32;55.65;97697.45;224536;1269;138075;-77
2023/04/24 06:52:48;;;;;;;4.70;3.70;;;;;;;18.75;55.04;97694.00;224552;1265;138317;-78
2023/04/24 06:57:50;;;;;;;5.60;3.60;;;;;;;19.12;54.44;97694.79;224614;1257;139253;-77
2023/04/24 07:02:53;;;;;;;4.50;4.10;;;;;;;19.37;52.82;97694.11;224563;1262;138138;-80
2023/04/24 07:07:55;;;;;;;5.60;4.20;;;;;;;19.53;52.24;97694.59;224411;1262;22547;-79
2023/04/24 07:12:57;;;;;;;4.90;4.00;;;;;;;19.69;51.80;97694.91;224646;1257;138824;-80
2023/04/24 07:18:00;;;;;;;5.80;4.60;;;;;;;19.79;51.14;97691.88;224636;1259;138986;-79
2023/04/24 07:23:05;;;;;;;7.90;4.50;;;;;;;19.78;50.17;97688.56;224574;1259;138693;-80
2023/04/24 07:28:07;;;;;;;6.90;4.90;;;;;;;19.75;50.77;97686.25;224832;1265;138177;-80
2023/04/24 07:33:12;;;;;;;8.30;4.60;;;;;;;19.78;50.20;97680.34;224684;1257;138139;-80
2023/04/24 07:38:15;;;;;;;6.70;4.50;;;;;;;19.80;50.43;97683.40;224753;1262;23111;-79
2023/04/24 07:43:19;;;;;;;4.90;4.50;;;;;;;19.90;49.82;97681.38;224619;1259;137786;-79
2023/04/24 07:48:22;;;;;;;6.20;4.40;;;;;;;19.94;49.24;97678.63;224401;1268;138060;-78
2023/04/24 07:53:24;;;;;;;5.70;4.60;;;;;;;20.07;48.76;97678.02;224577;1270;137197;-79
2023/04/24 07:58:26;;;;;;;6.30;4.80;;;;;;;20.19;48.54;97672.44;224824;1269;138553;-79
2023/04/24 08:03:28;;;;;;;5.50;4.60;;;;;;;20.33;48.32;97664.52;224298;1265;138238;-79
2023/04/24 08:08:31;;;;;;;5.80;4.80;;;;;;;20.46;48.18;97661.14;224402;1275;138254;-79
2023/04/24 08:13:33;;;;;;;6.90;4.80;;;;;;;20.58;48.19;97659.45;224820;1274;22539;-80
2023/04/24 08:18:35;;;;;;;6.00;4.80;;;;;;;20.81;48.34;97659.80;224864;1276;137738;-78
2023/04/24 08:23:37;;;;;;;6.20;4.20;;;;;;;21.04;47.80;97660.30;224896;1265;138213;-80
2023/04/24 08:28:40;;;;;;;5.00;4.20;;;;;;;21.14;47.22;97658.85;225011;1279;138163;-80
2023/04/24 08:33:44;;;;;;;6.50;4.60;;;;;;;21.12;46.56;97653.49;224875;1278;138097;-79
2023/04/24 08:38:47;;;;;;;6.50;5.00;;;;;;;21.18;46.97;97650.45;224897;1270;137981;-79
2023/04/24 08:43:50;;;;;;;6.30;4.60;;;;;;;21.31;46.84;97649.52;224938;1274;22669;-79
2023/04/24 08:48:53;;;;;;;5.30;4.30;;;;;;;21.43;46.89;97650.30;224886;1280;137757;-79
2023/04/24 08:53:55;;;;;;;7.10;4.50;;;;;;;21.56;46.42;97645.43;224700;1280;137887;-79
2023/04/24 08:58:57;;;;;;;7.70;4.50;;;;;;;21.64;46.49;97636.46;224821;1277;137966;-76
2023/04/24 09:04:03;;;;;;;5.20;4.70;;;;;;;21.89;46.41;97633.79;224980;1259;138550;-77
2023/04/24 09:09:08;;;;;;;5.40;4.90;;;;;;;22.25;46.50;97630.09;225104;1273;138096;-76
2023/04/24 09:14:10;;;;;;;5.60;5.10;;;;;;;22.54;46.02;97630.98;224756;1274;22598;-76
2023/04/24 09:19:12;;;;;;;6.40;5.40;;;;;;;22.83;46.02;97636.90;225010;1275;137662;-77
2023/04/24 09:24:22;;;;;;;7.10;5.40;;;;;;;23.01;45.09;97635.23;224820;1276;137958;-78
2023/04/24 09:29:24;;;;;;;;;;;;;;;23.14;45.29;97633.14;224735;1262;138401;-76
2023/04/24 09:34:27;;;;;;;5.60;5.10;;;;;;;23.25;44.47;97628.67;224538;1275;124409;-76
2023/04/24 09:39:29;;;;;;;5.90;5.40;;;;;;;23.48;44.47;97623.02;224728;1262;138266;-78
2023/04/24 09:44:34;;;;;;;6.70;6.00;;;;;;;23.70;43.92;97615.36;224732;1272;138055;-78
2023/04/24 09:49:39;;;;;;;7.90;7.10;;;;;;;23.79;43.02;97609.56;224638;1259;22741;-77
2023/04/24 09:54:41;;;;;;;6.10;5.50;;;;;;;23.74;43.57;97605.90;224679;1279;136911;-78
2023/04/24 09:59:45;;;;;;;6.40;5.60;;;;;;;23.94;43.31;97601.36;224580;1273;138459;-80
2023/04/24 10:04:56;;;;;;;5.60;5.10;;;;;;;24.04;43.09;97605.30;224683;1275;138585;-82
2023/04/24 10:09:59;;;;;;;5.30;4.90;;;;;;;23.96;42.68;97609.15;224881;1277;138169;-80
2023/04/24 10:15:02;;;;;;;5.70;5.00;;;;;;;23.89;42.85;97608.69;224989;1265;138277;-81
2023/04/24 10:20:06;;;;;;;6.90;5.40;;;;;;;23.83;42.69;97601.92;225122;1258;22605;-79
2023/04/24 10:25:09;;;;;;;6.00;5.50;;;;;;;23.77;42.25;97607.39;224813;1278;188807;-79
2023/04/24 10:30:13;;;;;;;5.70;5.00;;;;;;;23.36;41.84;97607.70;224653;1258;138143;-80
2023/04/24 10:35:18;;;;;;;6.00;5.50;;;;;;;23.04;42.08;97603.19;224871;1267;138380;-79
2023/04/24 10:40:27;;;;;;;9.20;6.10;;;;;;;22.70;42.16;97605.96;224835;1262;137942;-81
2023/04/24 10:45:29;;;;;;;6.70;5.40;;;;;;;22.39;42.34;97611.27;224857;1278;138910;-79
2023/04/24 10:50:51;;;;;;;7.10;5.80;;;;;;;21.89;43.03;97618.94;224534;1259;138171;-79
2023/04/24 10:56:03;;;;;;;7.10;5.50;;;;;;;21.49;43.47;97620.63;224583;1274;22530;-79
2023/04/24 11:01:05;;;;;;;8.50;4.90;;;;;;;21.24;44.35;97623.27;224897;1273;138322;-79
2023/04/24 11:06:09;;;;;;;6.80;5.30;;;;;;;21.20;44.93;97621.37;224634;1262;138150;-79
2023/04/24 11:11:13;;;;;;;5.20;4.70;;;;;;;21.27;44.82;97621.68;224783;1257;137961;-83
2023/04/24 11:16:21;;;;;;;5.80;5.20;;;;;;;21.26;44.97;97622.81;224696;1261;138192;-80
2023/04/24 11:21:24;;;;;;;8.20;5.20;;;;;;;21.16;45.25;97621.88;224878;1275;138038;-83
2023/04/24 11:26:32;;;;;;;11.60;5.20;;;;;;;21.12;45.58;97624.44;224899;1262;22538;-79
2023/04/24 11:31:35;;;;;;;7.00;5.20;;;;;;;21.06;45.93;97623.98;225138;1262;22540;-79
2023/04/24 11:36:38;;;;;;;5.40;4.90;;;;;;;21.10;46.62;97628.38;224673;1262;137750;-79
2023/04/24 11:41:40;;;;;;;8.10;4.70;;;;;;;21.19;46.49;97632.99;224985;1262;138256;-79
2023/04/24 11:46:42;;;;;;;10.60;4.90;;;;;;;21.24;46.19;97632.27;224788;1275;138129;-79
2023/04/24 11:51:44;;;;;;;8.90;5.00;;;;;;;21.04;45.83;97633.92;224826;1279;139171;-78
2023/04/24 11:56:56;;;;;;;7.20;4.80;;;;;;;20.79;46.24;97626.90;224784;1272;138178;-77
2023/04/24 12:01:58;;;;;;;11.30;5.20;;;;;;;20.69;46.68;97622.05;224876;1275;22530;-79
2023/04/24 12:07:04;;;;;;;20.10;5.30;;;;;;;20.41;46.79;97621.51;224552;1275;138070;-78
2023/04/24 12:12:06;;;;;;;8.30;5.00;;;;;;;20.24;47.21;97624.11;224841;1262;138777;-79
2023/04/24 12:17:08;;;;;;;6.80;4.30;;;;;;;20.01;47.37;97629.36;224753;1262;138268;-77
2023/04/24 12:22:10;;;;;;;6.80;4.60;;;;;;;19.70;47.38;97628.50;224635;1280;138292;-80
2023/04/24 12:27:20;;;;;;;7.40;4.40;;;;;;;19.42;48.15;97621.23;224632;1264;138912;-78
2023/04/24 12:32:22;;;;;;;11.50;4.90;;;;;;;19.42;48.46;97621.83;225069;1280;22597;-77
2023/04/24 12:37:26;;;;;;;5.00;4.50;;;;;;;19.38;48.68;97624.14;224809;1280;138087;-77
2023/04/24 12:42:30;;;;;;;6.60;4.10;;;;;;;19.58;49.29;97618.73;224801;1270;138173;-78
2023/04/24 12:47:34;;;;;;;4.70;4.10;;;;;;;19.86;49.47;97617.64;224896;1275;138369;-77
2023/04/24 12:52:38;;;;;;;5.10;4.20;;;;;;;20.02;49.19;97617.34;224718;1260;138248;-76
2023/04/24 12:57:40;;;;;;;4.50;4.00;;;;;;;20.16;49.41;97618.17;224752;1275;138026;-76
2023/04/24 13:02:42;;;;;;;6.10;4.10;;;;;;;20.08;49.31;97611.30;224876;1271;138132;-76
2023/04/24 13:07:45;;;;;;;7.10;4.40;;;;;;;19.83;48.98;97612.14;224782;1273;22573;-78
2023/04/24 13:12:47;;;;;;;4.30;3.90;;;;;;;19.53;49.31;97606.11;224625;1262;137615;-77
2023/04/24 13:17:50;;;;;;;6.40;4.00;;;;;;;19.42;49.89;97605.43;224721;1266;138740;-77
2023/04/24 13:22:52;;;;;;;6.30;5.70;;;;;;;19.25;50.18;97611.38;224567;1280;138149;-77
2023/04/24 13:27:55;;;;;;;6.50;4.80;;;;;;;19.07;50.72;97606.82;225432;1265;136976;-76
2023/04/24 13:32:57;;;;;;;5.90;4.70;;;;;;;18.97;51.01;97603.51;224455;1259;138629;-76
2023/04/24 13:38:01;;;;;;;6.30;4.40;;;;;;;18.89;51.47;97598.60;224554;1277;22541;-77
2023/04/24 13:43:03;;;;;;;8.60;4.60;;;;;;;18.89;51.31;97601.02;224410;1274;137843;-78
2023/04/24 13:48:05;;;;;;;4.90;4.40;;;;;;;18.61;51.60;97592.63;225062;1277;138892;-80
2023/04/24 13:53:07;;;;;;;5.10;3.80;;;;;;;18.26;51.82;97591.52;224030;1271;138145;-77
2023/04/24 13:58:10;;;;;;;5.70;4.40;;;;;;;17.82;52.69;97584.30;223954;1269;138288;-76
2023/04/24 14:03:12;;;;;;;5.60;4.60;;;;;;;17.47;53.50;97586.40;223938;1267;22527;-75
2023/04/24 14:08:14;;;;;;;5.10;4.60;;;;;;;17.12;54.46;97583.68;223860;1283;22548;-76
2023/04/24 14:13:17;;;;;;;6.50;4.90;;;;;;;16.86;55.59;97576.92;224139;1284;22545;-77
2023/04/24 14:18:19;;;;;;;5.50;4.80;;;;;;;16.66;56.15;97567.13;224378;1278;22558;-75
2023/04/24 14:23:21;;;;;;;5.00;4.60;;;;;;;16.50;56.74;97558.61;223957;1284;22535;-75
2023/04/24 14:28:24;;;;;;;6.10;4.90;;;;;;;16.34;57.29;97566.12;224241;1281;22539;-77
2023/04/24 14:33:26;;;;;;;5.10;4.60;;;;;;;16.28;58.11;97574.35;224834;1280;23003;-76
2023/04/24 14:38:29;;;;;;;5.70;4.70;;;;;;;16.33;58.65;97577.79;224745;1284;22536;-75
2023/04/24 14:43:32;;;;;;;4.60;4.20;;;;;;;16.33;58.51;97580.18;224606;1284;22541;-77
2023/04/24 14:48:34;;;;;;;4.60;4.20;;;;;;;16.19;58.37;97575.48;224687;1283;22563;-76
2023/04/24 14:53:37;;;;;;;4.30;3.90;;;;;;;16.08;58.19;97578.10;224701;1283;22560;-76
2023/04/24 14:58:39;;;;;;;6.00;3.90;;;;;;;16.03;58.38;97572.45;224666;1281;22533;-76
2023/04/24 15:03:41;;;;;;;4.20;3.40;;;;;;;15.97;58.70;97570.91;224755;1281;22543;-76
2023/04/24 15:08:44;;;;;;;4.30;3.90;;;;;;;15.89;58.76;97570.30;224730;1284;22604;-76
2023/04/24 15:13:49;;;;;;;6.00;4.30;;;;;;;15.85;58.93;97571.44;224753;1283;22540;-76
2023/04/24 15:18:52;;;;;;;4.20;3.70;;;;;;;15.74;58.86;97572.86;224766;1279;22533;-76
2023/04/24 15:23:54;;;;;;;4.50;3.90;;;;;;;15.53;59.54;97569.54;224728;1284;22649;-76
2023/04/24 15:28:58;;;;;;;5.00;4.00;;;;;;;15.32;59.93;97576.30;224746;1284;22637;-75
2023/04/24 15:33:59;;;;;;;4.60;4.10;;;;;;;15.11;60.69;97578.54;224689;1283;25918;-76
2023/04/24 15:39:02;;;;;;;5.00;4.40;;;;;;;14.96;61.22;97583.70;224716;1284;22539;-76
2023/04/24 15:44:08;;;;;;;5.70;5.20;;;;;;;14.85;61.69;97584.29;224780;1280;22530;-75
2023/04/24 15:49:10;;;;;;;7.30;5.50;;;;;;;14.81;62.37;97589.26;224773;1284;22556;-76
2023/04/24 15:54:13;;;;;;;6.10;5.60;;;;;;;14.79;62.76;97592.95;224740;1284;23109;-75
2023/04/24 15:59:17;;;;;;;7.30;6.00;;;;;;;14.77;63.55;97593.66;224749;1284;25308;-76
2023/04/24 16:04:19;;;;;;;7.30;6.40;;;;;;;14.68;64.18;97594.69;224690;1282;22537;-76
2023/04/24 16:09:21;;;;;;;6.80;6.00;;;;;;;14.57;64.87;97596.81;224722;1280;23010;-76
2023/04/24 16:14:24;;;;;;;7.50;6.80;;;;;;;14.44;65.44;97595.70;224730;1281;22554;-76
2023/04/24 16:19:27;;;;;;;8.70;7.90;;;;;;;14.35;66.02;97598.08;224761;1280;22558;-76
2023/04/24 16:24:29;;;;;;;8.40;7.30;;;;;;;14.25;66.51;97595.92;224797;1283;22924;-76
2023/04/24 16:29:32;;;;;;;8.90;8.00;;;;;;;14.21;66.75;97596.83;224767;1279;22648;-76
2023/04/24 16:34:34;;;;;;;8.90;8.00;;;;;;;14.11;66.98;97596.55;224717;1283;22533;-75
2023/04/24 16:39:37;;;;;;;9.40;8.40;;;;;;;14.03;67.50;97595.50;224660;1284;22669;-77
2023/04/24 16:44:40;;;;;;;10.10;8.30;;;;;;;14.01;67.71;97592.19;224739;1284;25390;-75
2023/04/24 16:49:43;;;;;;;10.50;9.10;;;;;;;13.93;67.98;97593.85;224743;1284;22529;-77
2023/04/24 16:54:45;;;;;;;12.40;9.80;;;;;;;13.80;68.48;97591.52;224709;1284;22536;-76
2023/04/24 16:59:47;;;;;;;11.10;9.60;;;;;;;13.66;68.79;97587.73;224705;1281;22576;-76
2023/04/24 17:04:48;;;;;;;10.50;9.10;;;;;;;13.55;69.14;97588.94;224714;1284;22547;-76
2023/04/24 17:09:51;;;;;;;10.10;9.10;;;;;;;13.50;69.43;97587.46;224748;1278;23014;-76
2023/04/24 17:14:53;;;;;;;10.20;9.10;;;;;;;13.43;69.76;97588.43;224734;1284;25394;-77
2023/04/24 17:19:55;;;;;;;11.00;9.90;;;;;;;13.36;70.03;97593.45;224761;1280;22534;-75
2023/04/24 17:24:57;;;;;;;12.10;10.20;;;;;;;13.29;70.26;97594.53;224774;1284;22562;-76
2023/04/24 17:29:59;;;;;;;12.60;10.50;;;;;;;13.24;70.57;97597.97;224753;1275;22534;-75
2023/04/24 17:35:02;;;;;;;12.00;10.70;;;;;;;13.17;70.61;97602.73;224739;1283;22549;-76
2023/04/24 17:40:06;;;;;;;13.50;11.50;;;;;;;13.10;70.83;97605.23;224709;1284;22584;-76
2023/04/24 17:45:08;;;;;;;14.70;12.30;;;;;;;13.04;71.26;97610.70;224769;1280;22560;-76
2023/04/24 17:50:11;;;;;;;15.10;13.60;;;;;;;12.97;71.50;97614.29;224768;1280;22640;-76
2023/04/24 17:55:13;;;;;;;16.60;14.40;;;;;;;12.92;71.76;97622.71;224725;1284;22583;-77
2023/04/24 18:00:16;;;;;;;13.60;12.10;;;;;;;12.87;72.18;97634.17;224787;1284;24344;-76
2023/04/24 18:05:18;;;;;;;25.00;18.20;;;;;;;12.80;72.60;97636.00;224746;1280;22574;-75
2023/04/24 18:10:20;;;;;;;29.40;22.60;;;;;;;12.71;73.12;97643.91;224774;1281;22534;-78
2023/04/24 18:15:23;;;;;;;28.10;21.00;;;;;;;12.65;73.60;97650.27;224712;1284;22556;-77
2023/04/24 18:20:26;;;;;;;26.30;19.30;;;;;;;12.57;74.00;97650.26;224745;1282;22617;-78
2023/04/24 18:25:28;;;;;;;22.50;18.60;;;;;;;12.49;74.44;97654.08;224802;1282;22635;-77
2023/04/24 18:30:31;;;;;;;21.10;18.60;;;;;;;12.43;74.79;97655.60;224771;1281;22660;-77
2023/04/24 18:35:33;;;;;;;21.60;19.20;;;;;;;12.40;75.28;97663.45;224751;1284;22545;-78
2023/04/24 18:40:35;;;;;;;21.30;17.80;;;;;;;12.32;75.65;97664.05;224719;1284;22543;-77
2023/04/24 18:45:37;;;;;;;19.80;17.70;;;;;;;12.27;75.98;97665.26;224693;1284;24318;-78
2023/04/24 18:50:39;;;;;;;19.70;17.70;;;;;;;12.25;76.40;97670.30;224746;1281;22531;-77
2023/04/24 18:55:42;;;;;;;21.30;18.60;;;;;;;12.20;76.59;97673.41;224754;1284;25485;-76
2023/04/24 19:00:44;;;;;;;20.80;17.80;;;;;;;12.13;76.93;97679.52;224755;1284;22554;-76
2023/04/24 19:05:46;;;;;;;23.80;19.20;;;;;;;12.06;77.21;97678.58;224732;1284;23208;-77
2023/04/24 19:10:49;;;;;;;18.60;16.80;;;;;;;12.04;77.56;97678.73;224765;1284;24423;-77
2023/04/24 19:15:51;;;;;;;19.40;17.50;;;;;;;12.03;77.85;97682.80;224753;1282;22651;-75
2023/04/24 19:20:54;;;;;;;19.40;17.30;;;;;;;11.98;78.09;97682.56;224709;1284;22569;-79
2023/04/24 19:25:56;;;;;;;17.80;15.40;;;;;;;11.96;78.33;97680.31;224827;1284;22660;-78
2023/04/24 19:30:59;;;;;;;19.60;17.60;;;;;;;11.91;78.52;97674.95;224762;1282;24274;-77
2023/04/24 19:36:01;;;;;;;19.50;17.40;;;;;;;11.86;78.78;97674.01;224770;1282;22546;-77
2023/04/24 19:41:03;;;;;;;17.80;15.70;;;;;;;11.81;78.97;97679.11;224759;1282;22527;-77
2023/04/24 19:46:05;;;;;;;18.40;16.60;;;;;;;11.76;79.15;97679.98;224767;1283;22586;-77
2023/04/24 19:51:07;;;;;;;26.10;22.00;;;;;;;11.71;79.06;97678.73;224688;1284;22545;-77
2023/04/24 19:56:09;;;;;;;17.10;15.20;;;;;;;11.66;79.43;97680.52;224791;1283;22555;-78
2023/04/24 20:01:12;;;;;;;18.90;16.90;;;;;;;11.61;79.65;97687.50;224772;1284;24391;-78
2023/04/24 20:06:14;;;;;;;18.60;16.70;;;;;;;11.55;80.10;97688.79;224747;1281;22614;-76
2023/04/24 20:11:16;;;;;;;12.50;11.20;;;;;;;11.50;80.06;97688.04;224747;1284;22570;-76
2023/04/24 20:16:18;;;;;;;10.30;9.00;;;;;;;11.43;80.28;97689.26;224757;1282;22540;-77
2023/04/24 20:21:20;;;;;;;7.80;6.90;;;;;;;11.34;80.24;97693.86;224757;1282;22583;-77
2023/04/24 20:26:22;;;;;;;7.60;6.30;;;;;;;11.24;80.10;97697.05;224702;1284;22550;-78
2023/04/24 20:31:24;;;;;;;5.90;5.30;;;;;;;11.13;80.01;97703.18;224688;1284;22532;-77
2023/04/24 20:36:27;;;;;;;7.20;6.00;;;;;;;11.03;80.32;97708.56;224672;1284;22530;-76
2023/04/24 20:41:29;;;;;;;9.30;6.60;;;;;;;10.93;80.27;97710.48;224760;1283;22540;-76
2023/04/24 20:46:32;;;;;;;6.40;5.80;;;;;;;10.83;80.50;97710.39;224704;1284;22540;-76
2023/04/24 20:51:35;;;;;;;6.50;5.50;;;;;;;10.76;80.64;97717.04;224797;1282;22574;-75
2023/04/24 20:56:38;;;;;;;5.90;5.00;;;;;;;10.71;80.95;97722.64;224813;1283;22531;-77
2023/04/24 21:01:43;;;;;;;6.30;5.40;;;;;;;10.63;80.76;97724.69;224792;1283;24283;-76
2023/04/24 21:06:46;;;;;;;7.70;5.70;;;;;;;10.56;81.10;97730.58;224745;1282;22543;-77
2023/04/24 21:11:51;;;;;;;8.90;6.30;;;;;;;10.50;81.27;97731.45;224723;1281;22504;-76
2023/04/24 21:16:57;;;;;;;7.50;6.70;;;;;;;10.45;81.24;97733.91;224708;1284;22536;-76
2023/04/24 21:21:59;;;;;;;8.20;7.40;;;;;;;10.43;81.53;97739.16;224764;1284;22566;-76
2023/04/24 21:27:02;;;;;;;8.60;7.70;;;;;;;10.42;81.85;97736.85;224745;1283;22558;-75
2023/04/24 21:32:04;;;;;;;9.60;8.60;;;;;;;10.40;81.97;97732.67;224730;1283;22548;-75
2023/04/24 21:37:06;;;;;;;9.30;8.40;;;;;;;10.39;81.82;97735.61;224769;1278;25302;-75
2023/04/24 21:42:28;;;;;;;9.70;8.70;;;;;;;10.41;82.15;97735.35;224754;1283;22622;-76
2023/04/24 21:47:37;;;;;;;9.60;8.60;;;;;;;10.42;82.31;97737.14;224751;1284;25479;-75
2023/04/24 21:52:41;;;;;;;9.90;7.50;;;;;;;10.44;82.01;97742.58;224780;1284;25461;-75
2023/04/24 21:57:43;;;;;;;8.30;7.40;;;;;;;10.45;82.34;97741.34;224779;1284;22593;-75
2023/04/24 22:02:45;;;;;;;9.00;7.70;;;;;;;10.44;81.90;97738.88;224740;1281;22558;-76
2023/04/24 22:07:48;;;;;;;9.20;7.70;;;;;;;10.42;82.21;97740.30;224738;1283;22546;-76
2023/04/24 22:12:51;;;;;;;8.70;7.70;;;;;;;10.40;82.16;97736.54;224729;1280;22542;-76
2023/04/24 22:17:53;;;;;;;10.20;8.30;;;;;;;10.38;82.29;97735.52;224728;1284;22480;-75
2023/04/24 22:22:56;;;;;;;8.90;8.00;;;;;;;10.36;82.33;97733.41;224437;1284;431549;-75
2023/04/24 22:27:58;;;;;;;9.20;7.70;;;;;;;10.36;82.61;97732.60;224698;1284;22553;-75
2023/04/24 22:33:00;;;;;;;9.30;7.80;;;;;;;10.37;82.53;97735.69;224712;1284;25562;-76
2023/04/24 22:38:02;;;;;;;8.30;7.20;;;;;;;10.36;82.70;97742.15;224771;1283;22547;-76
2023/04/24 22:43:05;;;;;;;7.30;6.60;;;;;;;10.35;82.69;97735.24;224763;1284;22540;-75
2023/04/24 22:48:07;;;;;;;7.70;6.80;;;;;;;10.37;82.57;97737.23;224668;1279;22543;-76
2023/04/24 22:53:09;;;;;;;6.50;5.90;;;;;;;10.39;82.53;97735.02;224734;1284;22576;-76
2023/04/24 22:58:11;;;;;;;7.10;6.30;;;;;;;10.39;82.75;97734.29;224683;1284;22475;-77
2023/04/24 23:03:13;;;;;;;10.30;6.90;;;;;;;10.39;82.73;97730.91;224672;1283;22580;-75
2023/04/24 23:08:16;;;;;;;7.80;6.80;;;;;;;10.35;82.99;97725.53;224799;1280;22562;-75
2023/04/24 23:13:43;;;;;;;10.60;7.40;;;;;;;10.32;83.00;97720.52;224791;1284;22586;-75